createdAt,value
2023-05-09T00:01:20.721Z,8.88
2023-05-09T00:03:47.823Z,8.84
2023-05-09T00:06:15.519Z,8.85
2023-05-09T00:08:42.137Z,8.87
2023-05-09T00:11:08.934Z,8.84
2023-05-09T00:13:35.825Z,8.83
2023-05-09T00:16:03.150Z,8.82
2023-05-09T00:18:31.282Z,8.82
2023-05-09T00:20:57.965Z,8.82
2023-05-09T00:23:24.546Z,8.81
2023-05-09T00:25:51.169Z,8.82
2023-05-09T00:28:17.725Z,8.82
2023-05-09T00:30:44.832Z,8.78
2023-05-09T00:33:11.737Z,8.73
2023-05-09T00:35:38.493Z,8.72
2023-05-09T00:38:05.106Z,8.69
2023-05-09T00:40:31.688Z,8.64
2023-05-09T00:42:59.720Z,8.56
2023-05-09T00:45:26.504Z,8.54
2023-05-09T00:47:53.548Z,8.54
2023-05-09T00:50:20.868Z,8.50
2023-05-09T00:52:47.499Z,8.49
2023-05-09T00:55:16.065Z,8.45
2023-05-09T00:57:43.070Z,8.40
2023-05-09T01:00:13.317Z,8.37
2023-05-09T01:02:47.642Z,8.30
2023-05-09T01:05:15.342Z,8.30
2023-05-09T01:08:04.705Z,8.29
2023-05-09T01:11:09.509Z,8.29
2023-05-09T01:13:52.644Z,8.26
2023-05-09T01:16:56.596Z,8.20
2023-05-09T01:19:44.785Z,8.21
2023-05-09T01:22:14.033Z,8.17
2023-05-09T01:25:02.076Z,8.13
2023-05-09T01:27:50.142Z,8.06
2023-05-09T01:30:19.010Z,8.02
2023-05-09T01:32:50.079Z,8.03
2023-05-09T01:35:18.406Z,7.95
2023-05-09T01:37:50.483Z,7.90
2023-05-09T01:40:21.323Z,7.83
2023-05-09T01:42:51.751Z,7.82
2023-05-09T01:45:19.997Z,7.84
2023-05-09T01:47:49.055Z,7.82
2023-05-09T01:50:18.921Z,7.83
2023-05-09T01:52:48.816Z,7.83
2023-05-09T01:55:16.955Z,7.74
2023-05-09T01:57:45.246Z,7.69
2023-05-09T02:00:13.797Z,7.71
2023-05-09T02:02:41.549Z,7.66
2023-05-09T02:05:10.661Z,7.61
2023-05-09T02:07:38.911Z,7.59
2023-05-09T02:10:09.083Z,7.57
2023-05-09T02:12:35.695Z,7.53
2023-05-09T02:15:02.345Z,7.50
2023-05-09T02:17:30.906Z,7.46
2023-05-09T02:19:57.662Z,7.42
2023-05-09T02:22:24.410Z,7.36
2023-05-09T02:24:51.175Z,7.36
2023-05-09T02:27:19.062Z,7.33
2023-05-09T02:29:49.223Z,7.33
2023-05-09T02:32:19.037Z,7.31
2023-05-09T02:34:46.998Z,7.26
2023-05-09T02:37:14.027Z,7.28
2023-05-09T02:39:40.956Z,7.23
2023-05-09T02:42:10.247Z,7.23
2023-05-09T02:44:37.321Z,7.22
2023-05-09T02:47:05.359Z,7.20
2023-05-09T02:49:32.816Z,7.18
2023-05-09T02:51:59.773Z,7.17
2023-05-09T02:54:26.363Z,7.16
2023-05-09T02:56:53.020Z,7.12
2023-05-09T02:59:20.328Z,7.09
2023-05-09T03:01:47.082Z,6.99
2023-05-09T03:04:13.702Z,6.97
2023-05-09T03:06:40.403Z,6.97
2023-05-09T03:09:07.197Z,6.97
2023-05-09T03:11:36.878Z,6.97
2023-05-09T03:14:04.202Z,6.95
2023-05-09T03:16:31.143Z,6.96
2023-05-09T03:18:57.755Z,6.95
2023-05-09T03:21:24.324Z,6.95
2023-05-09T03:23:50.904Z,6.94
2023-05-09T03:26:17.673Z,6.95
2023-05-09T03:28:44.277Z,6.94
2023-05-09T03:31:10.841Z,6.94
2023-05-09T03:33:37.540Z,6.95
2023-05-09T03:36:05.263Z,6.96
2023-05-09T03:38:32.192Z,6.97
2023-05-09T03:40:58.984Z,7.03
2023-05-09T03:43:25.603Z,7.06
2023-05-09T03:45:52.201Z,7.10
2023-05-09T03:48:18.748Z,7.10
2023-05-09T03:50:45.500Z,7.13
2023-05-09T03:53:12.048Z,7.13
2023-05-09T03:55:38.692Z,7.19
2023-05-09T03:58:05.272Z,7.22
2023-05-09T04:00:31.880Z,7.25
2023-05-09T04:02:58.526Z,7.30
2023-05-09T04:05:27.053Z,7.29
2023-05-09T04:07:53.681Z,7.33
2023-05-09T04:10:20.332Z,7.36
2023-05-09T04:12:46.960Z,7.39
2023-05-09T04:15:13.878Z,7.43
2023-05-09T04:17:40.773Z,7.44
2023-05-09T04:20:08.350Z,7.45
2023-05-09T04:22:34.999Z,7.50
2023-05-09T04:25:02.064Z,7.52
2023-05-09T04:27:28.952Z,7.60
2023-05-09T04:29:55.606Z,7.66
2023-05-09T04:32:22.580Z,7.72
2023-05-09T04:34:49.744Z,7.73
2023-05-09T04:37:16.289Z,7.81
2023-05-09T04:39:42.919Z,7.86
2023-05-09T04:42:09.479Z,7.91
2023-05-09T04:44:36.149Z,7.96
2023-05-09T04:47:02.711Z,7.99
2023-05-09T04:49:29.301Z,8.04
2023-05-09T04:51:55.892Z,8.12
2023-05-09T04:54:22.520Z,8.20
2023-05-09T04:56:50.617Z,8.29
2023-05-09T04:59:17.341Z,8.36
2023-05-09T05:01:44.138Z,8.46
2023-05-09T05:04:10.780Z,8.55
2023-05-09T05:06:37.492Z,8.63
2023-05-09T05:09:04.164Z,8.70
2023-05-09T05:11:30.973Z,8.77
2023-05-09T05:13:57.527Z,8.86
2023-05-09T05:16:24.140Z,8.98
2023-05-09T05:18:50.736Z,9.09
2023-05-09T05:21:17.387Z,9.18
2023-05-09T05:23:44.066Z,9.25
2023-05-09T05:26:10.635Z,9.31
2023-05-09T05:28:37.224Z,9.39
2023-05-09T05:31:03.804Z,9.48
2023-05-09T05:33:30.347Z,9.50
2023-05-09T05:35:56.916Z,9.54
2023-05-09T05:38:23.568Z,9.61
2023-05-09T05:40:50.132Z,9.65
2023-05-09T05:43:16.816Z,9.73
2023-05-09T05:45:43.396Z,9.86
2023-05-09T05:48:10.003Z,9.92
2023-05-09T05:50:36.841Z,9.99
2023-05-09T05:53:04.596Z,10.02
2023-05-09T05:55:31.228Z,10.05
2023-05-09T05:57:57.793Z,10.14
2023-05-09T06:00:24.455Z,10.29
2023-05-09T06:02:51.173Z,10.35
2023-05-09T06:05:18.026Z,10.40
2023-05-09T06:07:44.580Z,10.48
2023-05-09T06:10:11.349Z,10.59
2023-05-09T06:12:37.937Z,10.66
2023-05-09T06:15:07.784Z,10.68
2023-05-09T06:17:34.877Z,10.77
2023-05-09T06:20:01.642Z,10.86
2023-05-09T06:22:28.224Z,10.94
2023-05-09T06:24:54.909Z,11.10
2023-05-09T06:27:21.635Z,11.10
2023-05-09T06:29:48.294Z,11.14
2023-05-09T06:32:14.987Z,11.24
2023-05-09T06:34:42.158Z,11.35
2023-05-09T06:37:08.760Z,11.46
2023-05-09T06:39:35.361Z,11.54
2023-05-09T06:42:02.032Z,11.64
2023-05-09T06:44:28.595Z,11.68
2023-05-09T06:46:55.567Z,11.80
2023-05-09T06:49:22.178Z,11.88
2023-05-09T06:51:48.785Z,11.96
2023-05-09T06:54:17.349Z,12.07
2023-05-09T06:56:44.021Z,12.24
2023-05-09T06:59:13.670Z,12.35
2023-05-09T07:01:41.105Z,12.43
2023-05-09T07:04:07.847Z,12.59
2023-05-09T07:06:34.613Z,12.65
2023-05-09T07:09:01.188Z,12.78
2023-05-09T07:11:27.922Z,12.89
2023-05-09T07:13:54.499Z,13.01
2023-05-09T07:16:23.102Z,13.09
2023-05-09T07:18:51.079Z,13.20
2023-05-09T07:21:17.650Z,13.26
2023-05-09T07:23:44.213Z,13.33
2023-05-09T07:26:10.814Z,13.37
2023-05-09T07:28:37.380Z,13.43
2023-05-09T07:31:04.641Z,13.52
2023-05-09T07:33:31.219Z,13.63
2023-05-09T07:36:01.207Z,13.72
2023-05-09T07:38:27.758Z,13.79
2023-05-09T07:40:54.360Z,13.88
2023-05-09T07:43:20.975Z,13.99
2023-05-09T07:45:47.554Z,14.05
2023-05-09T07:48:14.273Z,14.15
2023-05-09T07:50:40.856Z,14.26
2023-05-09T07:53:07.386Z,14.40
2023-05-09T07:55:33.967Z,14.47
2023-05-09T07:58:00.525Z,14.48
2023-05-09T08:00:27.186Z,14.67
2023-05-09T08:02:54.364Z,14.73
2023-05-09T08:05:21.161Z,14.79
2023-05-09T08:07:47.887Z,14.94
2023-05-09T08:10:14.630Z,15.07
2023-05-09T08:12:41.305Z,15.15
2023-05-09T08:15:08.292Z,15.26
2023-05-09T08:17:34.945Z,15.38
2023-05-09T08:20:01.675Z,15.49
2023-05-09T08:22:28.223Z,15.60
2023-05-09T08:24:54.816Z,15.73
2023-05-09T08:27:21.371Z,15.91
2023-05-09T08:29:47.957Z,16.07
2023-05-09T08:32:14.532Z,16.12
2023-05-09T08:34:41.256Z,16.27
2023-05-09T08:37:07.913Z,16.37
2023-05-09T08:39:37.928Z,16.39
2023-05-09T08:42:04.578Z,16.45
2023-05-09T08:44:32.175Z,16.62
2023-05-09T08:47:01.015Z,16.70
2023-05-09T08:49:28.206Z,16.81
2023-05-09T08:51:56.101Z,16.96
2023-05-09T08:54:23.922Z,17.11
2023-05-09T08:56:51.482Z,17.24
2023-05-09T08:59:19.117Z,17.37
2023-05-09T09:01:46.070Z,17.47
2023-05-09T09:04:12.882Z,17.34
2023-05-09T09:06:40.578Z,17.56
2023-05-09T09:09:09.163Z,17.71
2023-05-09T09:11:36.796Z,17.90
2023-05-09T09:14:16.530Z,18.18
2023-05-09T09:16:44.970Z,18.25
2023-05-09T09:19:18.952Z,18.36
2023-05-09T09:21:47.469Z,18.59
2023-05-09T09:24:14.635Z,18.72
2023-05-09T09:26:47.425Z,18.72
2023-05-09T09:29:15.628Z,18.60
2023-05-09T09:31:46.046Z,18.54
2023-05-09T09:34:19.174Z,18.43
2023-05-09T09:36:46.898Z,18.54
2023-05-09T09:39:14.449Z,18.70
2023-05-09T09:41:41.808Z,18.92
2023-05-09T09:44:09.894Z,19.15
2023-05-09T09:46:50.816Z,19.45
2023-05-09T09:49:20.238Z,19.44
2023-05-09T09:51:54.631Z,19.27
2023-05-09T09:54:21.638Z,19.18
2023-05-09T09:56:50.063Z,19.33
2023-05-09T09:59:18.961Z,19.59
2023-05-09T10:02:06.112Z,19.83
2023-05-09T10:04:36.398Z,20.10
2023-05-09T10:07:07.302Z,20.02
2023-05-09T10:09:35.910Z,20.09
2023-05-09T10:12:04.899Z,19.80
2023-05-09T10:14:34.968Z,19.76
2023-05-09T10:17:04.409Z,19.86
2023-05-09T10:19:32.156Z,20.01
2023-05-09T10:22:04.347Z,20.10
2023-05-09T10:25:16.413Z,20.03
2023-05-09T10:27:46.595Z,20.05
2023-05-09T10:30:22.630Z,20.27
2023-05-09T10:32:54.641Z,20.39
2023-05-09T10:35:26.560Z,20.04
2023-05-09T10:37:56.859Z,19.80
2023-05-09T10:40:24.121Z,19.64
2023-05-09T10:42:50.909Z,19.67
2023-05-09T10:45:17.702Z,19.88
2023-05-09T10:47:46.480Z,20.18
2023-05-09T10:50:13.915Z,20.63
2023-05-09T10:53:05.092Z,21.03
2023-05-09T10:55:56.508Z,20.94
2023-05-09T10:58:33.692Z,20.85
2023-05-09T11:01:02.554Z,20.63
2023-05-09T11:03:49.980Z,20.76
2023-05-09T11:06:45.543Z,21.14
2023-05-09T11:09:35.558Z,21.49
2023-05-09T11:12:04.893Z,21.58
2023-05-09T11:14:48.875Z,21.31
2023-05-09T11:17:28.721Z,21.02
2023-05-09T11:20:00.655Z,21.03
2023-05-09T11:22:44.191Z,20.80
2023-05-09T11:25:13.327Z,20.92
2023-05-09T11:28:00.883Z,21.22
2023-05-09T11:30:42.157Z,21.00
2023-05-09T11:33:30.169Z,20.73
2023-05-09T11:36:19.502Z,20.61
2023-05-09T11:38:49.152Z,20.58
2023-05-09T11:41:15.918Z,20.77
2023-05-09T11:43:44.447Z,21.15
2023-05-09T11:46:11.576Z,21.11
2023-05-09T11:48:39.753Z,21.03
2023-05-09T11:51:07.532Z,20.80
2023-05-09T11:53:34.339Z,20.79
2023-05-09T11:56:04.784Z,21.12
2023-05-09T11:58:31.697Z,21.17
2023-05-09T12:00:58.594Z,21.05
2023-05-09T12:03:25.811Z,20.88
2023-05-09T12:05:54.583Z,20.68
2023-05-09T12:08:22.836Z,20.52
2023-05-09T12:10:49.513Z,20.75
2023-05-09T12:13:16.301Z,21.22
2023-05-09T12:15:45.733Z,21.37
2023-05-09T12:18:12.456Z,21.26
2023-05-09T12:20:48.396Z,21.03
2023-05-09T12:23:15.328Z,20.96
2023-05-09T12:25:49.161Z,21.06
2023-05-09T12:28:16.473Z,21.53
2023-05-09T12:30:44.403Z,21.65
2023-05-09T12:33:12.383Z,21.84
2023-05-09T12:35:40.232Z,22.08
2023-05-09T12:38:06.903Z,22.22
2023-05-09T12:40:33.824Z,22.31
2023-05-09T12:43:02.660Z,22.60
2023-05-09T12:45:32.946Z,22.53
2023-05-09T12:48:00.950Z,22.36
2023-05-09T12:50:35.443Z,22.00
2023-05-09T12:53:04.310Z,21.79
2023-05-09T12:55:31.842Z,21.65
2023-05-09T12:58:01.652Z,21.45
2023-05-09T13:00:28.601Z,21.39
2023-05-09T13:02:55.454Z,21.32
2023-05-09T13:05:23.178Z,21.27
2023-05-09T13:07:54.757Z,21.23
2023-05-09T13:10:28.447Z,21.05
2023-05-09T13:12:55.202Z,21.00
2023-05-09T13:15:23.537Z,20.89
2023-05-09T13:17:51.993Z,20.88
2023-05-09T13:20:19.555Z,21.05
2023-05-09T13:22:46.860Z,21.04
2023-05-09T13:25:13.866Z,21.08
2023-05-09T13:27:40.655Z,21.14
2023-05-09T13:30:08.518Z,21.65
2023-05-09T13:32:36.726Z,22.02
2023-05-09T13:35:06.665Z,22.35
2023-05-09T13:37:34.287Z,22.55
2023-05-09T13:40:01.134Z,22.95
2023-05-09T13:42:28.417Z,23.43
2023-05-09T13:44:55.027Z,23.66
2023-05-09T13:47:21.788Z,24.04
2023-05-09T13:49:48.436Z,24.35
2023-05-09T13:52:16.227Z,24.86
2023-05-09T13:54:43.187Z,25.57
2023-05-09T13:57:10.029Z,25.66
2023-05-09T13:59:37.400Z,25.65
2023-05-09T14:02:04.279Z,26.12
2023-05-09T14:04:34.573Z,26.20
2023-05-09T14:07:01.621Z,25.63
2023-05-09T14:09:29.554Z,25.28
2023-05-09T14:11:57.106Z,24.84
2023-05-09T14:14:25.181Z,24.22
2023-05-09T14:16:52.657Z,23.66
2023-05-09T14:19:19.256Z,23.26
2023-05-09T14:21:48.995Z,22.80
2023-05-09T14:24:16.487Z,22.47
2023-05-09T14:26:43.783Z,22.18
2023-05-09T14:29:10.914Z,22.98
2023-05-09T14:31:37.644Z,24.53
2023-05-09T14:34:05.361Z,25.99
2023-05-09T14:36:32.885Z,26.67
2023-05-09T14:38:59.606Z,26.79
2023-05-09T14:41:26.844Z,26.20
2023-05-09T14:43:53.589Z,25.27
2023-05-09T14:46:20.325Z,24.51
2023-05-09T14:48:47.026Z,23.96
2023-05-09T14:51:14.313Z,23.20
2023-05-09T14:53:41.920Z,22.89
2023-05-09T14:56:10.551Z,22.24
2023-05-09T14:58:37.576Z,21.73
2023-05-09T15:01:04.554Z,21.80
2023-05-09T15:03:31.821Z,21.78
2023-05-09T15:05:58.844Z,23.48
2023-05-09T15:08:26.160Z,25.72
2023-05-09T15:10:53.330Z,27.18
2023-05-09T15:13:20.136Z,28.32
2023-05-09T15:15:47.221Z,29.44
2023-05-09T15:18:16.502Z,27.47
2023-05-09T15:20:43.501Z,28.85
2023-05-09T15:23:12.164Z,29.71
2023-05-09T15:25:41.640Z,29.01
2023-05-09T15:28:08.348Z,29.38
2023-05-09T15:30:38.361Z,29.15
2023-05-09T15:33:05.122Z,27.21
2023-05-09T15:35:31.806Z,25.87
2023-05-09T15:37:58.426Z,24.80
2023-05-09T15:40:25.294Z,24.31
2023-05-09T15:42:51.965Z,23.48
2023-05-09T15:45:18.602Z,22.98
2023-05-09T15:47:45.243Z,22.14
2023-05-09T15:50:12.600Z,21.80
2023-05-09T15:52:39.208Z,21.94
2023-05-09T15:55:06.976Z,22.27
2023-05-09T15:57:33.755Z,23.73
2023-05-09T16:00:00.589Z,25.04
2023-05-09T16:02:28.560Z,26.21
2023-05-09T16:04:55.262Z,26.20
2023-05-09T16:07:22.131Z,26.51
2023-05-09T16:09:49.102Z,25.72
2023-05-09T16:12:15.946Z,24.58
2023-05-09T16:14:42.613Z,23.68
2023-05-09T16:17:09.190Z,22.89
2023-05-09T16:19:36.543Z,22.39
2023-05-09T16:22:03.259Z,21.81
2023-05-09T16:24:31.743Z,21.29
2023-05-09T16:26:58.590Z,20.99
2023-05-09T16:29:25.243Z,20.77
2023-05-09T16:31:52.076Z,20.55
2023-05-09T16:34:18.697Z,20.16
2023-05-09T16:36:46.447Z,19.89
2023-05-09T16:39:13.298Z,19.62
2023-05-09T16:41:41.402Z,19.36
2023-05-09T16:44:08.152Z,19.14
2023-05-09T16:46:34.706Z,19.03
2023-05-09T16:49:01.287Z,18.90
2023-05-09T16:51:27.933Z,18.79
2023-05-09T16:53:54.515Z,18.63
2023-05-09T16:56:21.629Z,18.45
2023-05-09T16:58:49.366Z,18.33
2023-05-09T17:01:16.070Z,18.23
2023-05-09T17:03:42.721Z,18.10
2023-05-09T17:06:09.339Z,18.16
2023-05-09T17:08:35.927Z,17.93
2023-05-09T17:11:02.520Z,17.93
2023-05-09T17:13:29.439Z,17.88
2023-05-09T17:15:56.997Z,17.89
2023-05-09T17:18:36.135Z,17.79
2023-05-09T17:21:04.715Z,17.64
2023-05-09T17:23:31.731Z,17.57
2023-05-09T17:25:58.306Z,17.43
2023-05-09T17:28:25.029Z,17.30
2023-05-09T17:30:51.639Z,17.32
2023-05-09T17:33:18.321Z,17.16
2023-05-09T17:35:44.907Z,17.12
2023-05-09T17:38:11.533Z,16.90
2023-05-09T17:40:38.350Z,16.83
2023-05-09T17:43:04.962Z,16.76
2023-05-09T17:45:31.564Z,16.63
2023-05-09T17:47:59.796Z,16.49
2023-05-09T17:50:26.980Z,16.34
2023-05-09T17:52:56.393Z,16.14
2023-05-09T17:55:23.526Z,16.10
2023-05-09T17:57:50.142Z,15.97
2023-05-09T18:00:17.340Z,15.96
2023-05-09T18:02:45.271Z,15.82
2023-05-09T18:05:11.998Z,15.76
2023-05-09T18:07:40.044Z,15.67
2023-05-09T18:10:07.921Z,15.57
2023-05-09T18:12:37.130Z,15.49
2023-05-09T18:15:04.857Z,15.53
2023-05-09T18:17:31.606Z,15.44
2023-05-09T18:19:58.380Z,15.40
2023-05-09T18:22:25.089Z,15.31
2023-05-09T18:24:52.716Z,15.26
2023-05-09T18:27:19.284Z,15.23
2023-05-09T18:29:47.532Z,15.20
2023-05-09T18:32:14.567Z,15.14
2023-05-09T18:34:41.899Z,15.07
2023-05-09T18:37:09.400Z,14.99
2023-05-09T18:39:36.614Z,14.90
2023-05-09T18:42:03.501Z,14.81
2023-05-09T18:44:30.112Z,14.69
2023-05-09T18:46:58.003Z,14.62
2023-05-09T18:49:27.589Z,14.54
2023-05-09T18:51:55.003Z,14.42
2023-05-09T18:54:21.656Z,14.36
2023-05-09T18:56:48.271Z,14.34
2023-05-09T18:59:16.382Z,14.27
2023-05-09T19:01:44.103Z,14.29
2023-05-09T19:04:11.081Z,14.26
2023-05-09T19:06:37.874Z,14.20
2023-05-09T19:09:04.855Z,14.18
2023-05-09T19:11:31.632Z,14.09
2023-05-09T19:13:58.241Z,14.08
2023-05-09T19:16:26.678Z,14.00
2023-05-09T19:19:01.490Z,13.98
2023-05-09T19:21:28.346Z,13.96
2023-05-09T19:23:55.497Z,13.93
2023-05-09T19:26:22.168Z,13.93
2023-05-09T19:28:48.885Z,13.88
2023-05-09T19:31:16.059Z,13.82
2023-05-09T19:33:45.708Z,13.80
2023-05-09T19:36:12.811Z,13.78
2023-05-09T19:38:39.558Z,13.74
2023-05-09T19:41:06.191Z,13.73
2023-05-09T19:43:32.857Z,13.64
2023-05-09T19:46:00.044Z,13.58
2023-05-09T19:48:26.821Z,13.57
2023-05-09T19:50:57.602Z,13.55
2023-05-09T19:53:24.811Z,13.49
2023-05-09T19:55:51.815Z,13.48
2023-05-09T19:58:18.436Z,13.44
2023-05-09T20:00:45.801Z,13.30
2023-05-09T20:03:12.621Z,13.24
2023-05-09T20:05:44.346Z,13.23
2023-05-09T20:08:11.052Z,13.20
2023-05-09T20:10:37.595Z,13.12
2023-05-09T20:13:04.587Z,13.11
2023-05-09T20:15:31.406Z,13.08
2023-05-09T20:17:58.531Z,13.02
2023-05-09T20:20:25.227Z,13.00
2023-05-09T20:22:51.794Z,12.87
2023-05-09T20:25:18.535Z,12.83
2023-05-09T20:27:45.106Z,12.82
2023-05-09T20:30:12.003Z,12.79
2023-05-09T20:32:38.818Z,12.77
2023-05-09T20:35:06.318Z,12.68
2023-05-09T20:37:32.924Z,12.65
2023-05-09T20:40:01.248Z,12.65
2023-05-09T20:42:27.993Z,12.57
2023-05-09T20:44:55.165Z,12.55
2023-05-09T20:47:21.879Z,12.54
2023-05-09T20:49:48.470Z,12.52
2023-05-09T20:52:15.106Z,12.51
2023-05-09T20:54:41.750Z,12.46
2023-05-09T20:57:08.495Z,12.46
2023-05-09T20:59:35.072Z,12.41
2023-05-09T21:02:02.708Z,12.38
2023-05-09T21:04:29.285Z,12.31
2023-05-09T21:06:55.902Z,12.24
2023-05-09T21:09:22.492Z,12.24
2023-05-09T21:11:49.057Z,12.24
2023-05-09T21:14:15.709Z,12.13
2023-05-09T21:16:43.946Z,12.07
2023-05-09T21:19:10.942Z,12.04
2023-05-09T21:21:37.569Z,12.03
2023-05-09T21:24:08.944Z,12.05
2023-05-09T21:26:36.393Z,12.01
2023-05-09T21:29:03.185Z,12.03
2023-05-09T21:31:29.849Z,11.99
2023-05-09T21:33:56.478Z,11.95
2023-05-09T21:36:23.033Z,11.98
2023-05-09T21:38:49.596Z,11.98
2023-05-09T21:41:16.129Z,11.97
2023-05-09T21:43:42.871Z,11.96
2023-05-09T21:46:10.032Z,11.97
2023-05-09T21:48:36.711Z,12.04
2023-05-09T21:51:04.033Z,12.08
2023-05-09T21:53:30.858Z,12.10
2023-05-09T21:55:57.416Z,12.15
2023-05-09T21:58:24.046Z,12.20
2023-05-09T22:00:50.625Z,12.26
2023-05-09T22:03:17.416Z,12.35
2023-05-09T22:05:44.014Z,12.40
2023-05-09T22:08:10.832Z,12.45
2023-05-09T22:10:37.811Z,12.50
2023-05-09T22:13:04.586Z,12.57
2023-05-09T22:15:34.169Z,12.59
2023-05-09T22:18:00.886Z,12.60
2023-05-09T22:20:27.675Z,12.64
2023-05-09T22:22:54.252Z,12.67
2023-05-09T22:25:20.968Z,12.67
2023-05-09T22:27:47.633Z,12.69
2023-05-09T22:30:14.473Z,12.71
2023-05-09T22:32:41.515Z,12.73
2023-05-09T22:35:08.629Z,12.68
2023-05-09T22:37:35.228Z,12.66
2023-05-09T22:40:01.937Z,12.66
2023-05-09T22:42:29.430Z,12.62
2023-05-09T22:44:56.089Z,12.59
2023-05-09T22:47:22.674Z,12.57
2023-05-09T22:49:49.536Z,12.55
2023-05-09T22:52:17.161Z,12.54
2023-05-09T22:54:43.837Z,12.52
2023-05-09T22:57:10.828Z,12.49
2023-05-09T22:59:37.480Z,12.44
2023-05-09T23:02:04.886Z,12.40
2023-05-09T23:10:55.583Z,12.24
2023-05-09T23:13:22.436Z,12.19
2023-05-09T23:15:49.090Z,12.15
2023-05-09T23:18:15.989Z,12.13
2023-05-09T23:20:42.707Z,12.10
2023-05-09T23:23:09.285Z,12.09
2023-05-09T23:25:35.883Z,12.06
2023-05-09T23:28:02.675Z,12.04
2023-05-09T23:30:29.294Z,11.97
2023-05-09T23:32:56.359Z,11.96
2023-05-09T23:35:23.023Z,11.86
2023-05-09T23:37:49.619Z,11.83
2023-05-09T23:40:16.460Z,11.81
2023-05-09T23:42:43.158Z,11.77
2023-05-09T23:45:10.376Z,11.76
2023-05-09T23:47:37.036Z,11.76
2023-05-09T23:50:03.867Z,11.75
2023-05-09T23:52:30.571Z,11.77
2023-05-09T23:54:57.135Z,11.79
2023-05-09T23:57:23.720Z,11.79
2023-05-09T23:59:50.282Z,11.79
